sensor_id;sensor_type;location;lat;lon;timestamp;P1;durP1;ratioP1;P2;durP2;ratioP2
14681;SDS011;7429;52.498;13.480;2023-08-07T00:02:33;5.68;;;5.28;;
14681;SDS011;7429;52.498;13.480;2023-08-07T00:05:36;5.13;;;4.07;;
14681;SDS011;7429;52.498;13.480;2023-08-07T00:08:40;5.53;;;4.70;;
14681;SDS011;7429;52.498;13.480;2023-08-07T00:11:45;4.75;;;4.35;;
14681;SDS011;7429;52.498;13.480;2023-08-07T00:14:49;5.78;;;5.22;;
14681;SDS011;7429;52.498;13.480;2023-08-07T00:17:52;6.95;;;6.30;;
14681;SDS011;7429;52.498;13.480;2023-08-07T00:20:56;6.63;;;4.63;;
14681;SDS011;7429;52.498;13.480;2023-08-07T00:23:59;4.88;;;4.38;;
14681;SDS011;7429;52.498;13.480;2023-08-07T00:27:05;7.03;;;6.43;;
14681;SDS011;7429;52.498;13.480;2023-08-07T00:30:11;7.40;;;6.97;;
14681;SDS011;7429;52.498;13.480;2023-08-07T00:33:16;10.05;;;8.93;;
14681;SDS011;7429;52.498;13.480;2023-08-07T00:36:19;7.82;;;7.13;;
14681;SDS011;7429;52.498;13.480;2023-08-07T00:39:22;8.68;;;8.05;;
14681;SDS011;7429;52.498;13.480;2023-08-07T00:42:28;13.25;;;7.30;;
14681;SDS011;7429;52.498;13.480;2023-08-07T00:45:32;8.95;;;8.10;;
14681;SDS011;7429;52.498;13.480;2023-08-07T00:48:39;8.57;;;7.57;;
14681;SDS011;7429;52.498;13.480;2023-08-07T00:51:42;11.15;;;10.15;;
14681;SDS011;7429;52.498;13.480;2023-08-07T00:54:46;10.25;;;8.15;;
14681;SDS011;7429;52.498;13.480;2023-08-07T00:57:50;8.75;;;8.00;;
14681;SDS011;7429;52.498;13.480;2023-08-07T01:00:53;8.52;;;7.70;;
14681;SDS011;7429;52.498;13.480;2023-08-07T01:03:57;7.43;;;6.82;;
14681;SDS011;7429;52.498;13.480;2023-08-07T01:07:00;11.18;;;7.00;;
14681;SDS011;7429;52.498;13.480;2023-08-07T01:10:05;7.07;;;6.43;;
14681;SDS011;7429;52.498;13.480;2023-08-07T01:13:12;9.45;;;8.77;;
14681;SDS011;7429;52.498;13.480;2023-08-07T01:16:25;8.27;;;7.68;;
14681;SDS011;7429;52.498;13.480;2023-08-07T01:19:36;9.55;;;8.85;;
14681;SDS011;7429;52.498;13.480;2023-08-07T01:22:43;8.65;;;7.80;;
14681;SDS011;7429;52.498;13.480;2023-08-07T01:25:46;11.85;;;11.15;;
14681;SDS011;7429;52.498;13.480;2023-08-07T01:28:50;9.63;;;8.98;;
14681;SDS011;7429;52.498;13.480;2023-08-07T01:32:01;7.80;;;6.70;;
14681;SDS011;7429;52.498;13.480;2023-08-07T01:35:10;8.13;;;7.53;;
14681;SDS011;7429;52.498;13.480;2023-08-07T01:38:23;6.90;;;6.22;;
14681;SDS011;7429;52.498;13.480;2023-08-07T01:41:29;7.72;;;7.25;;
14681;SDS011;7429;52.498;13.480;2023-08-07T01:44:33;12.65;;;11.73;;
14681;SDS011;7429;52.498;13.480;2023-08-07T01:47:36;9.23;;;8.43;;
14681;SDS011;7429;52.498;13.480;2023-08-07T01:50:40;7.95;;;7.35;;
14681;SDS011;7429;52.498;13.480;2023-08-07T01:53:44;8.90;;;7.90;;
14681;SDS011;7429;52.498;13.480;2023-08-07T01:56:49;8.15;;;6.88;;
14681;SDS011;7429;52.498;13.480;2023-08-07T01:59:52;9.30;;;6.32;;
14681;SDS011;7429;52.498;13.480;2023-08-07T02:02:56;7.22;;;6.00;;
14681;SDS011;7429;52.498;13.480;2023-08-07T02:06:01;7.18;;;6.55;;
14681;SDS011;7429;52.498;13.480;2023-08-07T02:09:06;7.85;;;7.05;;
14681;SDS011;7429;52.498;13.480;2023-08-07T02:12:09;7.88;;;7.20;;
14681;SDS011;7429;52.498;13.480;2023-08-07T02:15:12;8.52;;;7.82;;
14681;SDS011;7429;52.498;13.480;2023-08-07T02:18:15;10.85;;;8.65;;
14681;SDS011;7429;52.498;13.480;2023-08-07T02:21:18;7.93;;;6.43;;
14681;SDS011;7429;52.498;13.480;2023-08-07T02:24:26;9.00;;;6.13;;
14681;SDS011;7429;52.498;13.480;2023-08-07T02:27:30;11.75;;;9.63;;
14681;SDS011;7429;52.498;13.480;2023-08-07T02:30:33;11.48;;;8.18;;
14681;SDS011;7429;52.498;13.480;2023-08-07T02:33:36;8.70;;;7.90;;
14681;SDS011;7429;52.498;13.480;2023-08-07T02:36:39;8.90;;;7.20;;
14681;SDS011;7429;52.498;13.480;2023-08-07T02:39:44;9.20;;;8.30;;
14681;SDS011;7429;52.498;13.480;2023-08-07T02:42:47;9.97;;;9.17;;
14681;SDS011;7429;52.498;13.480;2023-08-07T02:45:50;16.42;;;10.80;;
14681;SDS011;7429;52.498;13.480;2023-08-07T02:48:53;8.65;;;7.78;;
14681;SDS011;7429;52.498;13.480;2023-08-07T02:51:56;9.45;;;7.70;;
14681;SDS011;7429;52.498;13.480;2023-08-07T02:55:00;10.90;;;7.47;;
14681;SDS011;7429;52.498;13.480;2023-08-07T02:58:04;7.97;;;7.00;;
14681;SDS011;7429;52.498;13.480;2023-08-07T03:01:07;10.65;;;8.40;;
14681;SDS011;7429;52.498;13.480;2023-08-07T03:04:11;12.85;;;9.60;;
14681;SDS011;7429;52.498;13.480;2023-08-07T03:07:14;11.60;;;10.60;;
14681;SDS011;7429;52.498;13.480;2023-08-07T03:10:19;12.95;;;11.63;;
14681;SDS011;7429;52.498;13.480;2023-08-07T03:13:28;9.82;;;8.82;;
14681;SDS011;7429;52.498;13.480;2023-08-07T03:16:32;11.15;;;7.75;;
14681;SDS011;7429;52.498;13.480;2023-08-07T03:19:35;10.73;;;8.70;;
14681;SDS011;7429;52.498;13.480;2023-08-07T03:22:40;13.23;;;9.93;;
14681;SDS011;7429;52.498;13.480;2023-08-07T03:25:45;10.85;;;9.70;;
14681;SDS011;7429;52.498;13.480;2023-08-07T03:28:48;13.48;;;8.02;;
14681;SDS011;7429;52.498;13.480;2023-08-07T03:31:52;22.98;;;21.35;;
14681;SDS011;7429;52.498;13.480;2023-08-07T03:34:58;12.93;;;11.77;;
14681;SDS011;7429;52.498;13.480;2023-08-07T03:38:06;13.10;;;12.00;;
14681;SDS011;7429;52.498;13.480;2023-08-07T03:41:11;12.23;;;11.27;;
14681;SDS011;7429;52.498;13.480;2023-08-07T03:44:17;13.95;;;10.88;;
14681;SDS011;7429;52.498;13.480;2023-08-07T03:47:20;14.13;;;9.05;;
14681;SDS011;7429;52.498;13.480;2023-08-07T03:50:23;11.35;;;9.50;;
14681;SDS011;7429;52.498;13.480;2023-08-07T03:53:26;13.25;;;11.95;;
14681;SDS011;7429;52.498;13.480;2023-08-07T03:56:31;12.50;;;9.57;;
14681;SDS011;7429;52.498;13.480;2023-08-07T03:59:39;14.57;;;13.23;;
14681;SDS011;7429;52.498;13.480;2023-08-07T04:02:45;14.95;;;11.18;;
14681;SDS011;7429;52.498;13.480;2023-08-07T04:05:51;12.20;;;11.15;;
14681;SDS011;7429;52.498;13.480;2023-08-07T04:08:56;13.25;;;11.90;;
14681;SDS011;7429;52.498;13.480;2023-08-07T04:12:00;15.40;;;11.30;;
14681;SDS011;7429;52.498;13.480;2023-08-07T04:15:05;12.10;;;10.52;;
14681;SDS011;7429;52.498;13.480;2023-08-07T04:18:11;11.82;;;10.20;;
14681;SDS011;7429;52.498;13.480;2023-08-07T04:21:14;11.70;;;9.80;;
14681;SDS011;7429;52.498;13.480;2023-08-07T04:24:17;12.43;;;11.15;;
14681;SDS011;7429;52.498;13.480;2023-08-07T04:27:22;14.88;;;9.57;;
14681;SDS011;7429;52.498;13.480;2023-08-07T04:30:25;12.10;;;10.90;;
14681;SDS011;7429;52.498;13.480;2023-08-07T04:33:28;14.18;;;12.27;;
14681;SDS011;7429;52.498;13.480;2023-08-07T04:36:31;15.52;;;14.07;;
14681;SDS011;7429;52.498;13.480;2023-08-07T04:39:35;12.90;;;11.57;;
14681;SDS011;7429;52.498;13.480;2023-08-07T04:42:40;20.42;;;18.75;;
14681;SDS011;7429;52.498;13.480;2023-08-07T04:45:43;12.68;;;11.68;;
14681;SDS011;7429;52.498;13.480;2023-08-07T04:48:47;15.07;;;13.70;;
14681;SDS011;7429;52.498;13.480;2023-08-07T04:51:50;10.50;;;9.45;;
14681;SDS011;7429;52.498;13.480;2023-08-07T04:54:53;10.88;;;8.70;;
14681;SDS011;7429;52.498;13.480;2023-08-07T04:57:58;10.20;;;8.63;;
14681;SDS011;7429;52.498;13.480;2023-08-07T05:01:01;15.43;;;14.32;;
14681;SDS011;7429;52.498;13.480;2023-08-07T05:04:04;9.13;;;8.23;;
14681;SDS011;7429;52.498;13.480;2023-08-07T05:07:08;15.68;;;13.68;;
14681;SDS011;7429;52.498;13.480;2023-08-07T05:10:12;9.35;;;7.70;;
14681;SDS011;7429;52.498;13.480;2023-08-07T05:13:16;6.85;;;6.13;;
14681;SDS011;7429;52.498;13.480;2023-08-07T05:16:19;10.85;;;8.13;;
14681;SDS011;7429;52.498;13.480;2023-08-07T05:19:23;9.02;;;7.88;;
14681;SDS011;7429;52.498;13.480;2023-08-07T05:22:26;9.30;;;8.25;;
14681;SDS011;7429;52.498;13.480;2023-08-07T05:25:29;10.68;;;9.70;;
14681;SDS011;7429;52.498;13.480;2023-08-07T05:28:33;10.98;;;10.07;;
14681;SDS011;7429;52.498;13.480;2023-08-07T05:31:37;8.77;;;7.93;;
14681;SDS011;7429;52.498;13.480;2023-08-07T05:34:40;11.23;;;10.05;;
14681;SDS011;7429;52.498;13.480;2023-08-07T05:37:44;12.20;;;8.55;;
14681;SDS011;7429;52.498;13.480;2023-08-07T05:40:48;11.60;;;8.02;;
14681;SDS011;7429;52.498;13.480;2023-08-07T05:43:52;12.00;;;9.05;;
14681;SDS011;7429;52.498;13.480;2023-08-07T05:46:55;8.55;;;7.78;;
14681;SDS011;7429;52.498;13.480;2023-08-07T05:49:59;9.25;;;7.57;;
14681;SDS011;7429;52.498;13.480;2023-08-07T05:53:02;10.00;;;8.85;;
14681;SDS011;7429;52.498;13.480;2023-08-07T05:56:05;10.25;;;8.50;;
14681;SDS011;7429;52.498;13.480;2023-08-07T05:59:10;13.32;;;11.73;;
14681;SDS011;7429;52.498;13.480;2023-08-07T06:02:15;11.02;;;10.10;;
14681;SDS011;7429;52.498;13.480;2023-08-07T06:05:19;9.85;;;8.68;;
14681;SDS011;7429;52.498;13.480;2023-08-07T06:08:24;12.05;;;11.07;;
14681;SDS011;7429;52.498;13.480;2023-08-07T06:11:30;9.13;;;8.43;;
14681;SDS011;7429;52.498;13.480;2023-08-07T06:14:39;11.45;;;10.23;;
14681;SDS011;7429;52.498;13.480;2023-08-07T06:17:42;8.98;;;8.10;;
14681;SDS011;7429;52.498;13.480;2023-08-07T06:20:48;9.52;;;6.20;;
14681;SDS011;7429;52.498;13.480;2023-08-07T06:23:53;9.18;;;6.15;;
14681;SDS011;7429;52.498;13.480;2023-08-07T06:26:58;7.35;;;6.63;;
14681;SDS011;7429;52.498;13.480;2023-08-07T06:30:03;8.15;;;5.75;;
14681;SDS011;7429;52.498;13.480;2023-08-07T06:33:08;10.38;;;6.82;;
14681;SDS011;7429;52.498;13.480;2023-08-07T06:36:14;6.90;;;5.88;;
14681;SDS011;7429;52.498;13.480;2023-08-07T06:39:19;6.63;;;4.90;;
14681;SDS011;7429;52.498;13.480;2023-08-07T06:42:25;5.57;;;4.68;;
14681;SDS011;7429;52.498;13.480;2023-08-07T06:45:29;5.22;;;4.43;;
14681;SDS011;7429;52.498;13.480;2023-08-07T06:48:32;7.25;;;4.82;;
14681;SDS011;7429;52.498;13.480;2023-08-07T06:51:36;4.93;;;4.50;;
14681;SDS011;7429;52.498;13.480;2023-08-07T06:54:39;6.72;;;4.47;;
14681;SDS011;7429;52.498;13.480;2023-08-07T06:57:44;5.00;;;4.53;;
14681;SDS011;7429;52.498;13.480;2023-08-07T07:00:49;5.45;;;4.32;;
14681;SDS011;7429;52.498;13.480;2023-08-07T07:03:52;8.70;;;8.05;;
14681;SDS011;7429;52.498;13.480;2023-08-07T07:06:55;6.15;;;5.68;;
14681;SDS011;7429;52.498;13.480;2023-08-07T07:09:58;5.93;;;5.32;;
14681;SDS011;7429;52.498;13.480;2023-08-07T07:13:03;7.88;;;4.97;;
14681;SDS011;7429;52.498;13.480;2023-08-07T07:16:07;5.15;;;4.10;;
14681;SDS011;7429;52.498;13.480;2023-08-07T07:19:12;6.47;;;6.05;;
14681;SDS011;7429;52.498;13.480;2023-08-07T07:22:15;4.60;;;4.20;;
14681;SDS011;7429;52.498;13.480;2023-08-07T07:25:19;6.90;;;4.40;;
14681;SDS011;7429;52.498;13.480;2023-08-07T07:28:26;7.38;;;3.63;;
14681;SDS011;7429;52.498;13.480;2023-08-07T07:31:31;6.72;;;3.85;;
14681;SDS011;7429;52.498;13.480;2023-08-07T07:34:37;5.38;;;4.05;;
14681;SDS011;7429;52.498;13.480;2023-08-07T07:37:43;6.03;;;4.47;;
14681;SDS011;7429;52.498;13.480;2023-08-07T07:40:46;5.95;;;4.60;;
14681;SDS011;7429;52.498;13.480;2023-08-07T07:43:49;4.07;;;3.40;;
14681;SDS011;7429;52.498;13.480;2023-08-07T07:46:54;6.45;;;5.82;;
14681;SDS011;7429;52.498;13.480;2023-08-07T07:50:04;5.68;;;5.05;;
14681;SDS011;7429;52.498;13.480;2023-08-07T07:53:09;4.03;;;3.70;;
14681;SDS011;7429;52.498;13.480;2023-08-07T07:56:12;6.97;;;4.85;;
14681;SDS011;7429;52.498;13.480;2023-08-07T07:59:15;6.70;;;4.25;;
14681;SDS011;7429;52.498;13.480;2023-08-07T08:02:20;4.90;;;4.35;;
14681;SDS011;7429;52.498;13.480;2023-08-07T08:05:27;5.82;;;3.70;;
14681;SDS011;7429;52.498;13.480;2023-08-07T08:08:30;5.03;;;4.65;;
14681;SDS011;7429;52.498;13.480;2023-08-07T08:11:34;7.65;;;6.97;;
14681;SDS011;7429;52.498;13.480;2023-08-07T08:14:37;7.05;;;4.53;;
14681;SDS011;7429;52.498;13.480;2023-08-07T08:17:57;5.13;;;4.50;;
14681;SDS011;7429;52.498;13.480;2023-08-07T08:21:00;4.53;;;4.13;;
14681;SDS011;7429;52.498;13.480;2023-08-07T08:24:04;4.95;;;4.40;;
14681;SDS011;7429;52.498;13.480;2023-08-07T08:27:09;5.80;;;5.22;;
14681;SDS011;7429;52.498;13.480;2023-08-07T08:30:12;5.80;;;4.32;;
14681;SDS011;7429;52.498;13.480;2023-08-07T08:33:17;6.78;;;3.80;;
14681;SDS011;7429;52.498;13.480;2023-08-07T08:36:20;4.43;;;3.33;;
14681;SDS011;7429;52.498;13.480;2023-08-07T08:39:27;7.60;;;3.80;;
14681;SDS011;7429;52.498;13.480;2023-08-07T08:42:30;4.43;;;4.03;;
14681;SDS011;7429;52.498;13.480;2023-08-07T08:45:35;4.22;;;3.83;;
14681;SDS011;7429;52.498;13.480;2023-08-07T08:48:42;5.43;;;4.18;;
14681;SDS011;7429;52.498;13.480;2023-08-07T08:51:51;5.28;;;4.80;;
14681;SDS011;7429;52.498;13.480;2023-08-07T08:54:55;5.00;;;3.83;;
14681;SDS011;7429;52.498;13.480;2023-08-07T08:57:59;5.30;;;4.35;;
14681;SDS011;7429;52.498;13.480;2023-08-07T09:01:03;4.78;;;3.88;;
14681;SDS011;7429;52.498;13.480;2023-08-07T09:04:10;5.90;;;4.88;;
14681;SDS011;7429;52.498;13.480;2023-08-07T09:07:14;6.00;;;4.88;;
14681;SDS011;7429;52.498;13.480;2023-08-07T09:10:18;4.03;;;3.63;;
14681;SDS011;7429;52.498;13.480;2023-08-07T09:13:24;4.05;;;3.75;;
14681;SDS011;7429;52.498;13.480;2023-08-07T09:16:31;3.83;;;3.60;;
14681;SDS011;7429;52.498;13.480;2023-08-07T09:19:36;5.63;;;4.03;;
14681;SDS011;7429;52.498;13.480;2023-08-07T09:22:40;5.78;;;4.05;;
14681;SDS011;7429;52.498;13.480;2023-08-07T09:25:43;9.00;;;5.47;;
14681;SDS011;7429;52.498;13.480;2023-08-07T09:28:47;4.65;;;4.25;;
14681;SDS011;7429;52.498;13.480;2023-08-07T09:31:50;7.60;;;3.72;;
14681;SDS011;7429;52.498;13.480;2023-08-07T09:34:55;6.65;;;3.80;;
14681;SDS011;7429;52.498;13.480;2023-08-07T09:37:58;4.47;;;4.13;;
14681;SDS011;7429;52.498;13.480;2023-08-07T09:41:04;8.15;;;4.20;;
14681;SDS011;7429;52.498;13.480;2023-08-07T09:44:08;4.53;;;3.50;;
14681;SDS011;7429;52.498;13.480;2023-08-07T09:47:13;4.70;;;3.88;;
14681;SDS011;7429;52.498;13.480;2023-08-07T09:50:19;6.60;;;4.63;;
14681;SDS011;7429;52.498;13.480;2023-08-07T09:53:27;5.13;;;4.40;;
14681;SDS011;7429;52.498;13.480;2023-08-07T09:56:31;5.30;;;3.30;;
14681;SDS011;7429;52.498;13.480;2023-08-07T09:59:35;5.80;;;3.50;;
14681;SDS011;7429;52.498;13.480;2023-08-07T10:02:38;4.13;;;3.47;;
14681;SDS011;7429;52.498;13.480;2023-08-07T10:05:48;5.60;;;4.60;;
14681;SDS011;7429;52.498;13.480;2023-08-07T10:08:51;4.63;;;3.15;;
14681;SDS011;7429;52.498;13.480;2023-08-07T10:11:56;5.03;;;3.15;;
14681;SDS011;7429;52.498;13.480;2023-08-07T10:15:01;5.05;;;3.42;;
14681;SDS011;7429;52.498;13.480;2023-08-07T10:18:05;4.30;;;3.90;;
14681;SDS011;7429;52.498;13.480;2023-08-07T10:21:10;5.35;;;3.47;;
14681;SDS011;7429;52.498;13.480;2023-08-07T10:24:13;6.60;;;3.60;;
14681;SDS011;7429;52.498;13.480;2023-08-07T10:27:18;7.93;;;4.43;;
14681;SDS011;7429;52.498;13.480;2023-08-07T10:30:25;4.93;;;4.47;;
14681;SDS011;7429;52.498;13.480;2023-08-07T10:33:28;4.57;;;2.95;;
14681;SDS011;7429;52.498;13.480;2023-08-07T10:36:34;3.95;;;2.85;;
14681;SDS011;7429;52.498;13.480;2023-08-07T10:40:02;5.55;;;3.03;;
14681;SDS011;7429;52.498;13.480;2023-08-07T10:43:16;3.83;;;3.40;;
14681;SDS011;7429;52.498;13.480;2023-08-07T10:46:20;6.00;;;3.00;;
14681;SDS011;7429;52.498;13.480;2023-08-07T10:49:32;3.17;;;2.95;;
14681;SDS011;7429;52.498;13.480;2023-08-07T10:52:39;4.47;;;3.25;;
14681;SDS011;7429;52.498;13.480;2023-08-07T10:55:43;4.10;;;3.08;;
14681;SDS011;7429;52.498;13.480;2023-08-07T10:58:50;5.40;;;4.85;;
14681;SDS011;7429;52.498;13.480;2023-08-07T11:01:54;4.70;;;4.30;;
14681;SDS011;7429;52.498;13.480;2023-08-07T11:04:58;5.03;;;3.53;;
14681;SDS011;7429;52.498;13.480;2023-08-07T11:08:03;5.70;;;3.40;;
14681;SDS011;7429;52.498;13.480;2023-08-07T11:11:06;5.65;;;2.95;;
14681;SDS011;7429;52.498;13.480;2023-08-07T11:14:11;6.43;;;3.28;;
14681;SDS011;7429;52.498;13.480;2023-08-07T11:17:16;4.45;;;4.03;;
14681;SDS011;7429;52.498;13.480;2023-08-07T11:20:19;6.65;;;3.17;;
14681;SDS011;7429;52.498;13.480;2023-08-07T11:23:24;4.93;;;3.83;;
14681;SDS011;7429;52.498;13.480;2023-08-07T11:26:28;5.45;;;3.83;;
14681;SDS011;7429;52.498;13.480;2023-08-07T11:29:32;7.22;;;4.10;;
14681;SDS011;7429;52.498;13.480;2023-08-07T11:32:38;5.38;;;4.32;;
14681;SDS011;7429;52.498;13.480;2023-08-07T11:35:41;5.43;;;4.25;;
14681;SDS011;7429;52.498;13.480;2023-08-07T11:38:49;4.68;;;4.30;;
14681;SDS011;7429;52.498;13.480;2023-08-07T11:41:52;5.72;;;3.70;;
14681;SDS011;7429;52.498;13.480;2023-08-07T11:44:56;6.18;;;3.72;;
14681;SDS011;7429;52.498;13.480;2023-08-07T11:48:00;4.75;;;4.35;;
14681;SDS011;7429;52.498;13.480;2023-08-07T11:51:05;7.57;;;3.78;;
14681;SDS011;7429;52.498;13.480;2023-08-07T11:54:13;4.38;;;3.90;;
14681;SDS011;7429;52.498;13.480;2023-08-07T11:57:17;5.43;;;4.95;;
14681;SDS011;7429;52.498;13.480;2023-08-07T12:00:24;7.03;;;3.85;;
14681;SDS011;7429;52.498;13.480;2023-08-07T12:03:29;4.28;;;3.88;;
14681;SDS011;7429;52.498;13.480;2023-08-07T12:06:36;10.55;;;3.50;;
14681;SDS011;7429;52.498;13.480;2023-08-07T12:09:43;8.98;;;4.32;;
14681;SDS011;7429;52.498;13.480;2023-08-07T12:12:46;5.10;;;3.53;;
14681;SDS011;7429;52.498;13.480;2023-08-07T12:15:50;6.38;;;3.17;;
14681;SDS011;7429;52.498;13.480;2023-08-07T12:18:54;4.40;;;3.95;;
14681;SDS011;7429;52.498;13.480;2023-08-07T12:21:57;7.40;;;4.60;;
14681;SDS011;7429;52.498;13.480;2023-08-07T12:25:02;5.60;;;4.03;;
14681;SDS011;7429;52.498;13.480;2023-08-07T12:28:06;6.63;;;3.30;;
14681;SDS011;7429;52.498;13.480;2023-08-07T12:31:09;8.13;;;4.30;;
14681;SDS011;7429;52.498;13.480;2023-08-07T12:34:12;6.35;;;3.20;;
14681;SDS011;7429;52.498;13.480;2023-08-07T12:37:20;6.25;;;3.42;;
14681;SDS011;7429;52.498;13.480;2023-08-07T12:40:25;8.02;;;3.85;;
14681;SDS011;7429;52.498;13.480;2023-08-07T12:43:32;7.47;;;4.25;;
14681;SDS011;7429;52.498;13.480;2023-08-07T12:46:40;7.80;;;4.38;;
14681;SDS011;7429;52.498;13.480;2023-08-07T12:49:44;6.65;;;3.78;;
14681;SDS011;7429;52.498;13.480;2023-08-07T12:52:49;5.82;;;3.97;;
14681;SDS011;7429;52.498;13.480;2023-08-07T12:55:54;9.45;;;3.88;;
14681;SDS011;7429;52.498;13.480;2023-08-07T12:58:58;6.57;;;4.72;;
14681;SDS011;7429;52.498;13.480;2023-08-07T13:02:03;10.57;;;4.40;;
14681;SDS011;7429;52.498;13.480;2023-08-07T13:05:06;7.63;;;4.38;;
14681;SDS011;7429;52.498;13.480;2023-08-07T13:08:11;6.93;;;4.40;;
14681;SDS011;7429;52.498;13.480;2023-08-07T13:11:16;13.35;;;5.28;;
14681;SDS011;7429;52.498;13.480;2023-08-07T13:14:19;9.55;;;4.68;;
14681;SDS011;7429;52.498;13.480;2023-08-07T13:17:22;8.00;;;4.65;;
14681;SDS011;7429;52.498;13.480;2023-08-07T13:20:25;10.63;;;5.30;;
14681;SDS011;7429;52.498;13.480;2023-08-07T13:23:29;6.38;;;4.35;;
14681;SDS011;7429;52.498;13.480;2023-08-07T13:26:33;14.15;;;4.85;;
14681;SDS011;7429;52.498;13.480;2023-08-07T13:29:36;14.85;;;3.83;;
14681;SDS011;7429;52.498;13.480;2023-08-07T13:32:39;9.95;;;3.53;;
14681;SDS011;7429;52.498;13.480;2023-08-07T13:35:42;13.20;;;4.38;;
14681;SDS011;7429;52.498;13.480;2023-08-07T13:38:45;8.63;;;3.50;;
14681;SDS011;7429;52.498;13.480;2023-08-07T13:41:50;12.90;;;3.78;;
14681;SDS011;7429;52.498;13.480;2023-08-07T13:44:53;6.65;;;3.42;;
14681;SDS011;7429;52.498;13.480;2023-08-07T13:47:57;10.13;;;3.38;;
14681;SDS011;7429;52.498;13.480;2023-08-07T13:51:00;7.88;;;4.10;;
14681;SDS011;7429;52.498;13.480;2023-08-07T13:54:08;11.32;;;4.18;;
14681;SDS011;7429;52.498;13.480;2023-08-07T13:57:13;8.63;;;3.60;;
14681;SDS011;7429;52.498;13.480;2023-08-07T14:00:16;5.57;;;3.17;;
14681;SDS011;7429;52.498;13.480;2023-08-07T14:03:20;6.05;;;2.92;;
14681;SDS011;7429;52.498;13.480;2023-08-07T14:06:24;5.50;;;3.80;;
14681;SDS011;7429;52.498;13.480;2023-08-07T14:09:27;7.40;;;3.60;;
14681;SDS011;7429;52.498;13.480;2023-08-07T14:12:32;10.05;;;4.15;;
14681;SDS011;7429;52.498;13.480;2023-08-07T14:15:35;11.95;;;4.32;;
14681;SDS011;7429;52.498;13.480;2023-08-07T14:18:38;12.55;;;4.15;;
14681;SDS011;7429;52.498;13.480;2023-08-07T14:21:42;8.43;;;4.18;;
14681;SDS011;7429;52.498;13.480;2023-08-07T14:24:45;10.00;;;4.38;;
14681;SDS011;7429;52.498;13.480;2023-08-07T14:27:53;10.02;;;4.55;;
14681;SDS011;7429;52.498;13.480;2023-08-07T14:30:57;7.80;;;3.97;;
14681;SDS011;7429;52.498;13.480;2023-08-07T14:34:02;11.10;;;4.57;;
14681;SDS011;7429;52.498;13.480;2023-08-07T14:37:05;11.80;;;4.43;;
14681;SDS011;7429;52.498;13.480;2023-08-07T14:40:08;8.30;;;3.70;;
14681;SDS011;7429;52.498;13.480;2023-08-07T14:43:14;8.20;;;4.25;;
14681;SDS011;7429;52.498;13.480;2023-08-07T14:46:17;8.13;;;4.32;;
14681;SDS011;7429;52.498;13.480;2023-08-07T14:49:23;6.78;;;3.20;;
14681;SDS011;7429;52.498;13.480;2023-08-07T14:52:26;11.55;;;4.03;;
14681;SDS011;7429;52.498;13.480;2023-08-07T14:55:29;6.85;;;3.60;;
14681;SDS011;7429;52.498;13.480;2023-08-07T14:58:35;8.15;;;4.22;;
14681;SDS011;7429;52.498;13.480;2023-08-07T15:01:38;11.57;;;3.70;;
14681;SDS011;7429;52.498;13.480;2023-08-07T15:04:41;15.25;;;4.95;;
14681;SDS011;7429;52.498;13.480;2023-08-07T15:07:44;5.50;;;3.65;;
14681;SDS011;7429;52.498;13.480;2023-08-07T15:10:47;8.77;;;3.22;;
14681;SDS011;7429;52.498;13.480;2023-08-07T15:13:57;8.90;;;3.78;;
14681;SDS011;7429;52.498;13.480;2023-08-07T15:17:00;9.30;;;3.63;;
14681;SDS011;7429;52.498;13.480;2023-08-07T15:20:04;11.00;;;3.47;;
14681;SDS011;7429;52.498;13.480;2023-08-07T15:23:09;8.40;;;3.65;;
14681;SDS011;7429;52.498;13.480;2023-08-07T15:26:15;6.72;;;4.15;;
14681;SDS011;7429;52.498;13.480;2023-08-07T15:29:19;8.38;;;3.45;;
14681;SDS011;7429;52.498;13.480;2023-08-07T15:32:23;8.00;;;3.30;;
14681;SDS011;7429;52.498;13.480;2023-08-07T15:35:28;8.25;;;3.53;;
14681;SDS011;7429;52.498;13.480;2023-08-07T15:38:32;9.40;;;3.35;;
14681;SDS011;7429;52.498;13.480;2023-08-07T15:41:39;11.27;;;4.18;;
14681;SDS011;7429;52.498;13.480;2023-08-07T15:44:46;6.80;;;4.13;;
14681;SDS011;7429;52.498;13.480;2023-08-07T15:47:52;9.07;;;3.17;;
14681;SDS011;7429;52.498;13.480;2023-08-07T15:50:58;7.60;;;3.53;;
14681;SDS011;7429;52.498;13.480;2023-08-07T15:54:01;6.57;;;3.22;;
14681;SDS011;7429;52.498;13.480;2023-08-07T15:57:05;7.80;;;4.03;;
14681;SDS011;7429;52.498;13.480;2023-08-07T16:00:13;8.90;;;3.47;;
14681;SDS011;7429;52.498;13.480;2023-08-07T16:03:17;8.40;;;3.78;;
14681;SDS011;7429;52.498;13.480;2023-08-07T16:06:23;6.85;;;2.92;;
14681;SDS011;7429;52.498;13.480;2023-08-07T16:09:26;10.70;;;4.28;;
14681;SDS011;7429;52.498;13.480;2023-08-07T16:12:29;10.55;;;4.40;;
14681;SDS011;7429;52.498;13.480;2023-08-07T16:15:53;9.45;;;4.35;;
14681;SDS011;7429;52.498;13.480;2023-08-07T16:19:14;10.20;;;4.38;;
14681;SDS011;7429;52.498;13.480;2023-08-07T16:22:18;8.40;;;3.90;;
14681;SDS011;7429;52.498;13.480;2023-08-07T16:25:41;8.52;;;4.57;;
14681;SDS011;7429;52.498;13.480;2023-08-07T16:29:03;7.75;;;3.80;;
14681;SDS011;7429;52.498;13.480;2023-08-07T16:32:26;10.50;;;5.55;;
14681;SDS011;7429;52.498;13.480;2023-08-07T16:35:29;12.55;;;4.15;;
14681;SDS011;7429;52.498;13.480;2023-08-07T16:38:32;10.43;;;4.97;;
14681;SDS011;7429;52.498;13.480;2023-08-07T16:41:35;10.13;;;4.43;;
14681;SDS011;7429;52.498;13.480;2023-08-07T16:44:41;5.95;;;3.65;;
14681;SDS011;7429;52.498;13.480;2023-08-07T16:47:46;6.50;;;3.53;;
14681;SDS011;7429;52.498;13.480;2023-08-07T16:50:51;8.82;;;3.20;;
14681;SDS011;7429;52.498;13.480;2023-08-07T16:54:15;6.53;;;3.88;;
14681;SDS011;7429;52.498;13.480;2023-08-07T16:57:18;7.68;;;4.05;;
14681;SDS011;7429;52.498;13.480;2023-08-07T17:00:21;8.20;;;4.82;;
14681;SDS011;7429;52.498;13.480;2023-08-07T17:03:26;10.43;;;4.28;;
14681;SDS011;7429;52.498;13.480;2023-08-07T17:06:29;6.85;;;3.70;;
14681;SDS011;7429;52.498;13.480;2023-08-07T17:09:32;7.38;;;3.97;;
14681;SDS011;7429;52.498;13.480;2023-08-07T17:12:35;8.05;;;3.67;;
14681;SDS011;7429;52.498;13.480;2023-08-07T17:15:41;8.25;;;3.35;;
14681;SDS011;7429;52.498;13.480;2023-08-07T17:18:46;7.53;;;3.60;;
14681;SDS011;7429;52.498;13.480;2023-08-07T17:21:49;7.85;;;3.70;;
14681;SDS011;7429;52.498;13.480;2023-08-07T17:24:57;11.55;;;4.20;;
14681;SDS011;7429;52.498;13.480;2023-08-07T17:28:01;11.00;;;4.28;;
14681;SDS011;7429;52.498;13.480;2023-08-07T17:31:04;4.15;;;3.20;;
14681;SDS011;7429;52.498;13.480;2023-08-07T17:34:09;4.95;;;2.97;;
14681;SDS011;7429;52.498;13.480;2023-08-07T17:37:12;5.30;;;3.75;;
14681;SDS011;7429;52.498;13.480;2023-08-07T17:40:19;8.18;;;2.88;;
14681;SDS011;7429;52.498;13.480;2023-08-07T17:43:22;10.00;;;3.53;;
14681;SDS011;7429;52.498;13.480;2023-08-07T17:46:25;6.70;;;3.95;;
14681;SDS011;7429;52.498;13.480;2023-08-07T17:49:30;5.22;;;3.63;;
14681;SDS011;7429;52.498;13.480;2023-08-07T17:52:38;10.13;;;4.55;;
14681;SDS011;7429;52.498;13.480;2023-08-07T17:55:44;4.72;;;2.95;;
14681;SDS011;7429;52.498;13.480;2023-08-07T17:58:48;7.55;;;3.80;;
14681;SDS011;7429;52.498;13.480;2023-08-07T18:01:54;7.20;;;3.25;;
14681;SDS011;7429;52.498;13.480;2023-08-07T18:04:58;5.55;;;3.22;;
14681;SDS011;7429;52.498;13.480;2023-08-07T18:08:02;9.60;;;3.22;;
14681;SDS011;7429;52.498;13.480;2023-08-07T18:11:06;6.13;;;3.70;;
14681;SDS011;7429;52.498;13.480;2023-08-07T18:14:09;11.88;;;3.70;;
14681;SDS011;7429;52.498;13.480;2023-08-07T18:17:13;9.90;;;4.50;;
14681;SDS011;7429;52.498;13.480;2023-08-07T18:20:17;7.18;;;3.38;;
14681;SDS011;7429;52.498;13.480;2023-08-07T18:23:20;6.40;;;3.60;;
14681;SDS011;7429;52.498;13.480;2023-08-07T18:26:23;8.70;;;4.25;;
14681;SDS011;7429;52.498;13.480;2023-08-07T18:29:27;8.07;;;4.00;;